sensor_id;sensor_type;location;lat;lon;timestamp;noise_LAeq;noise_LA_min;noise_LA_max;noise_LA01;noise_LA95
58197;Laerm;43999;51.660;5.616;2023-04-04T00:02:00;47.76;38.67;61.59;;
58197;Laerm;43999;51.660;5.616;2023-04-04T00:04:28;45.97;37.70;64.33;;
58197;Laerm;43999;51.660;5.616;2023-04-04T00:06:59;42.64;38.21;52.92;;
58197;Laerm;43999;51.660;5.616;2023-04-04T00:09:30;50.79;37.88;66.65;;
58197;Laerm;43999;51.660;5.616;2023-04-04T00:12:01;41.81;38.52;44.90;;
58197;Laerm;43999;51.660;5.616;2023-04-04T00:14:32;41.84;38.37;48.23;;
58197;Laerm;43999;51.660;5.616;2023-04-04T00:17:10;58.40;40.80;79.06;;
58197;Laerm;43999;51.660;5.616;2023-04-04T00:19:50;42.12;38.67;50.46;;
58197;Laerm;43999;51.660;5.616;2023-04-04T00:22:30;44.35;38.99;56.98;;
58197;Laerm;43999;51.660;5.616;2023-04-04T00:25:17;42.46;38.37;50.03;;
58197;Laerm;43999;51.660;5.616;2023-04-04T00:27:49;43.84;38.37;54.75;;
58197;Laerm;43999;51.660;5.616;2023-04-04T00:30:22;42.47;39.08;46.15;;
58197;Laerm;43999;51.660;5.616;2023-04-04T00:32:57;44.06;38.37;55.28;;
58197;Laerm;43999;51.660;5.616;2023-04-04T00:35:27;42.24;38.67;48.70;;
58197;Laerm;43999;51.660;5.616;2023-04-04T00:37:59;41.99;38.05;44.03;;
58197;Laerm;43999;51.660;5.616;2023-04-04T00:40:28;41.86;37.52;43.68;;
58197;Laerm;43999;51.660;5.616;2023-04-04T00:43:00;43.49;38.37;55.65;;
58197;Laerm;43999;51.660;5.616;2023-04-04T00:45:29;41.99;38.37;48.21;;
58197;Laerm;43999;51.660;5.616;2023-04-04T00:48:03;41.98;38.95;43.72;;
58197;Laerm;43999;51.660;5.616;2023-04-04T00:50:33;42.67;38.81;50.75;;
58197;Laerm;43999;51.660;5.616;2023-04-04T00:53:03;42.08;38.67;43.99;;
58197;Laerm;43999;51.660;5.616;2023-04-04T00:55:39;42.03;38.95;44.87;;
58197;Laerm;43999;51.660;5.616;2023-04-04T00:58:18;46.30;39.21;58.52;;
58197;Laerm;43999;51.660;5.616;2023-04-04T01:00:48;48.32;39.58;63.17;;
58197;Laerm;43999;51.660;5.616;2023-04-04T01:03:20;43.88;39.58;56.75;;
58197;Laerm;43999;51.660;5.616;2023-04-04T01:05:53;41.87;38.21;47.61;;
58197;Laerm;43999;51.660;5.616;2023-04-04T01:08:25;41.89;38.21;43.72;;
58197;Laerm;43999;51.660;5.616;2023-04-04T01:11:17;41.92;38.67;45.20;;
58197;Laerm;43999;51.660;5.616;2023-04-04T01:13:52;53.50;37.88;72.68;;
58197;Laerm;43999;51.660;5.616;2023-04-04T01:16:25;42.22;38.52;48.69;;
58197;Laerm;43999;51.660;5.616;2023-04-04T01:19:05;44.35;39.08;56.25;;
58197;Laerm;43999;51.660;5.616;2023-04-04T01:21:36;42.34;39.34;49.90;;
58197;Laerm;43999;51.660;5.616;2023-04-04T01:24:29;41.90;38.95;43.81;;
58197;Laerm;43999;51.660;5.616;2023-04-04T01:27:18;44.40;38.52;57.42;;
58197;Laerm;43999;51.660;5.616;2023-04-04T01:29:56;43.92;39.46;57.37;;
58197;Laerm;43999;51.660;5.616;2023-04-04T01:33:18;42.23;38.52;54.24;;
58197;Laerm;43999;51.660;5.616;2023-04-04T01:36:04;41.84;38.67;45.99;;
58197;Laerm;43999;51.660;5.616;2023-04-04T01:39:14;41.95;38.81;44.27;;
58197;Laerm;43999;51.660;5.616;2023-04-04T01:41:50;53.15;39.46;68.56;;
58197;Laerm;43999;51.660;5.616;2023-04-04T01:44:24;42.90;38.67;56.85;;
58197;Laerm;43999;51.660;5.616;2023-04-04T01:46:54;41.91;38.81;43.86;;
58197;Laerm;43999;51.660;5.616;2023-04-04T01:49:24;42.21;38.81;48.07;;
58197;Laerm;43999;51.660;5.616;2023-04-04T01:51:55;43.55;37.35;53.64;;
58197;Laerm;43999;51.660;5.616;2023-04-04T01:54:27;42.12;39.21;45.42;;
58197;Laerm;43999;51.660;5.616;2023-04-04T01:56:59;43.35;38.52;52.52;;
58197;Laerm;43999;51.660;5.616;2023-04-04T01:59:37;53.16;39.81;69.02;;
58197;Laerm;43999;51.660;5.616;2023-04-04T02:02:24;42.04;38.81;46.05;;
58197;Laerm;43999;51.660;5.616;2023-04-04T02:04:57;43.37;38.60;51.05;;
58197;Laerm;43999;51.660;5.616;2023-04-04T02:07:27;43.31;39.08;57.45;;
58197;Laerm;43999;51.660;5.616;2023-04-04T02:09:57;53.30;39.21;70.22;;
58197;Laerm;43999;51.660;5.616;2023-04-04T02:12:28;44.42;40.43;53.82;;
58197;Laerm;43999;51.660;5.616;2023-04-04T02:15:01;42.18;39.46;44.23;;
58197;Laerm;43999;51.660;5.616;2023-04-04T02:17:33;42.81;38.05;50.87;;
58197;Laerm;43999;51.660;5.616;2023-04-04T02:20:06;44.10;39.21;55.83;;
58197;Laerm;43999;51.660;5.616;2023-04-04T02:22:34;51.18;39.34;67.47;;
58197;Laerm;43999;51.660;5.616;2023-04-04T02:25:05;42.84;39.78;48.70;;
58197;Laerm;43999;51.660;5.616;2023-04-04T02:27:43;41.95;38.21;43.77;;
58197;Laerm;43999;51.660;5.616;2023-04-04T02:30:22;44.93;39.70;58.79;;
58197;Laerm;43999;51.660;5.616;2023-04-04T02:32:52;42.09;38.05;56.20;;
58197;Laerm;43999;51.660;5.616;2023-04-04T02:35:23;43.52;39.21;54.83;;
58197;Laerm;43999;51.660;5.616;2023-04-04T02:38:01;44.41;39.46;54.26;;
58197;Laerm;43999;51.660;5.616;2023-04-04T02:40:40;43.08;38.67;57.15;;
58197;Laerm;43999;51.660;5.616;2023-04-04T02:43:15;43.72;39.08;63.67;;
58197;Laerm;43999;51.660;5.616;2023-04-04T02:45:49;50.99;38.81;63.99;;
58197;Laerm;43999;51.660;5.616;2023-04-04T02:48:31;50.14;39.81;66.57;;
58197;Laerm;43999;51.660;5.616;2023-04-04T02:51:28;50.41;38.52;72.37;;
58197;Laerm;43999;51.660;5.616;2023-04-04T02:54:04;50.27;40.13;64.65;;
58197;Laerm;43999;51.660;5.616;2023-04-04T02:56:40;47.47;39.58;59.46;;
58197;Laerm;43999;51.660;5.616;2023-04-04T02:59:10;49.93;40.03;63.93;;
58197;Laerm;43999;51.660;5.616;2023-04-04T03:01:42;49.53;40.43;65.11;;
58197;Laerm;43999;51.660;5.616;2023-04-04T03:04:14;51.31;39.21;65.77;;
58197;Laerm;43999;51.660;5.616;2023-04-04T03:06:53;50.97;41.06;61.99;;
58197;Laerm;43999;51.660;5.616;2023-04-04T03:09:23;47.18;40.71;59.99;;
58197;Laerm;43999;51.660;5.616;2023-04-04T03:11:52;51.44;40.71;68.19;;
58197;Laerm;43999;51.660;5.616;2023-04-04T03:14:28;54.70;41.14;69.14;;
58197;Laerm;43999;51.660;5.616;2023-04-04T03:17:12;50.41;40.03;67.40;;
58197;Laerm;43999;51.660;5.616;2023-04-04T03:19:58;48.56;40.98;62.79;;
58197;Laerm;43999;51.660;5.616;2023-04-04T03:22:26;54.24;41.22;69.82;;
58197;Laerm;43999;51.660;5.616;2023-04-04T03:25:06;57.72;41.96;71.45;;
58197;Laerm;43999;51.660;5.616;2023-04-04T03:27:47;57.07;42.47;70.27;;
58197;Laerm;43999;51.660;5.616;2023-04-04T03:30:23;55.67;41.14;68.30;;
58197;Laerm;43999;51.660;5.616;2023-04-04T03:33:06;43.83;40.71;56.17;;
58197;Laerm;43999;51.660;5.616;2023-04-04T03:35:40;52.00;41.68;65.13;;
58197;Laerm;43999;51.660;5.616;2023-04-04T03:38:12;46.69;40.53;60.79;;
58197;Laerm;43999;51.660;5.616;2023-04-04T03:40:43;48.71;40.89;61.56;;
58197;Laerm;43999;51.660;5.616;2023-04-04T03:43:18;56.41;43.49;68.18;;
58197;Laerm;43999;51.660;5.616;2023-04-04T03:45:50;55.37;41.46;69.65;;
58197;Laerm;43999;51.660;5.616;2023-04-04T03:48:21;58.24;41.30;69.87;;
58197;Laerm;43999;51.660;5.616;2023-04-04T03:50:51;54.14;42.59;68.75;;
58197;Laerm;43999;51.660;5.616;2023-04-04T03:53:30;54.68;40.71;70.77;;
58197;Laerm;43999;51.660;5.616;2023-04-04T03:56:31;56.83;41.82;69.01;;
58197;Laerm;43999;51.660;5.616;2023-04-04T03:59:10;58.70;42.53;76.97;;
58197;Laerm;43999;51.660;5.616;2023-04-04T04:01:45;57.14;41.53;71.62;;
58197;Laerm;43999;51.660;5.616;2023-04-04T04:04:13;55.84;43.24;68.87;;
58197;Laerm;43999;51.660;5.616;2023-04-04T04:06:50;52.82;42.41;66.05;;
58197;Laerm;43999;51.660;5.616;2023-04-04T04:09:24;55.23;41.53;74.21;;
58197;Laerm;43999;51.660;5.616;2023-04-04T04:11:59;57.60;43.34;72.07;;
58197;Laerm;43999;51.660;5.616;2023-04-04T04:14:39;56.58;42.71;69.82;;
58197;Laerm;43999;51.660;5.616;2023-04-04T04:17:09;52.93;42.82;64.85;;
58197;Laerm;43999;51.660;5.616;2023-04-04T04:19:45;56.96;43.09;69.52;;
58197;Laerm;43999;51.660;5.616;2023-04-04T04:22:14;56.13;42.47;69.11;;
58197;Laerm;43999;51.660;5.616;2023-04-04T04:25:01;55.70;43.94;73.69;;
58197;Laerm;43999;51.660;5.616;2023-04-04T04:27:50;50.68;43.04;64.95;;
58197;Laerm;43999;51.660;5.616;2023-04-04T04:30:39;58.57;42.93;78.46;;
58197;Laerm;43999;51.660;5.616;2023-04-04T04:33:19;60.59;45.33;77.39;;
58197;Laerm;43999;51.660;5.616;2023-04-04T04:36:00;57.37;43.81;71.23;;
58197;Laerm;43999;51.660;5.616;2023-04-04T04:38:49;59.37;43.49;73.54;;
58197;Laerm;43999;51.660;5.616;2023-04-04T04:41:41;61.79;46.66;77.65;;
58197;Laerm;43999;51.660;5.616;2023-04-04T04:44:19;56.04;45.60;70.47;;
58197;Laerm;43999;51.660;5.616;2023-04-04T04:46:54;59.87;44.58;71.99;;
58197;Laerm;43999;51.660;5.616;2023-04-04T04:49:33;58.94;46.95;70.89;;
58197;Laerm;43999;51.660;5.616;2023-04-04T04:52:38;57.07;45.33;72.30;;
58197;Laerm;43999;51.660;5.616;2023-04-04T04:55:27;54.84;44.27;68.20;;
58197;Laerm;43999;51.660;5.616;2023-04-04T04:58:13;62.16;43.90;79.12;;
58197;Laerm;43999;51.660;5.616;2023-04-04T05:00:54;61.27;47.28;72.32;;
58197;Laerm;43999;51.660;5.616;2023-04-04T05:03:39;59.23;45.83;70.70;;
58197;Laerm;43999;51.660;5.616;2023-04-04T05:06:35;60.59;48.90;73.62;;
58197;Laerm;43999;51.660;5.616;2023-04-04T05:09:10;60.50;45.91;74.19;;
58197;Laerm;43999;51.660;5.616;2023-04-04T05:11:48;63.21;46.89;80.62;;
58197;Laerm;43999;51.660;5.616;2023-04-04T05:14:21;62.88;49.78;72.94;;
58197;Laerm;43999;51.660;5.616;2023-04-04T05:16:59;62.03;48.66;78.72;;
58197;Laerm;43999;51.660;5.616;2023-04-04T05:20:08;61.11;46.50;77.04;;
58197;Laerm;43999;51.660;5.616;2023-04-04T05:22:54;60.55;46.64;74.53;;
58197;Laerm;43999;51.660;5.616;2023-04-04T05:25:52;61.54;46.95;72.96;;
58197;Laerm;43999;51.660;5.616;2023-04-04T05:28:30;61.27;48.21;71.99;;
58197;Laerm;43999;51.660;5.616;2023-04-04T05:31:06;63.52;48.98;81.30;;
58197;Laerm;43999;51.660;5.616;2023-04-04T05:33:41;63.81;50.17;77.93;;
58197;Laerm;43999;51.660;5.616;2023-04-04T05:36:30;61.60;48.52;71.57;;
58197;Laerm;43999;51.660;5.616;2023-04-04T05:39:08;62.15;48.58;71.20;;
58197;Laerm;43999;51.660;5.616;2023-04-04T05:41:57;63.64;47.79;73.50;;
58197;Laerm;43999;51.660;5.616;2023-04-04T05:44:34;64.86;52.47;75.08;;
58197;Laerm;43999;51.660;5.616;2023-04-04T05:47:23;71.13;47.95;89.19;;
58197;Laerm;43999;51.660;5.616;2023-04-04T05:50:07;62.99;46.82;78.52;;
58197;Laerm;43999;51.660;5.616;2023-04-04T05:53:11;65.72;51.54;91.38;;
58197;Laerm;43999;51.660;5.616;2023-04-04T05:55:59;63.80;50.26;78.54;;
58197;Laerm;43999;51.660;5.616;2023-04-04T05:58:39;63.13;47.91;74.15;;
58197;Laerm;43999;51.660;5.616;2023-04-04T06:01:13;63.57;49.59;84.11;;
58197;Laerm;43999;51.660;5.616;2023-04-04T06:03:50;62.93;50.08;74.80;;
58197;Laerm;43999;51.660;5.616;2023-04-04T06:06:51;64.14;49.25;79.10;;
58197;Laerm;43999;51.660;5.616;2023-04-04T06:09:35;65.11;50.23;81.22;;
58197;Laerm;43999;51.660;5.616;2023-04-04T06:15:40;61.14;49.79;74.69;;
58197;Laerm;43999;51.660;5.616;2023-04-04T06:18:25;61.68;52.60;73.40;;
58197;Laerm;43999;51.660;5.616;2023-04-04T06:21:20;64.83;51.91;82.70;;
58197;Laerm;43999;51.660;5.616;2023-04-04T06:24:04;64.93;53.67;79.63;;
58197;Laerm;43999;51.660;5.616;2023-04-04T06:27:05;65.01;51.64;77.73;;
58197;Laerm;43999;51.660;5.616;2023-04-04T06:29:45;65.61;53.81;85.14;;
58197;Laerm;43999;51.660;5.616;2023-04-04T06:32:24;63.87;52.27;74.29;;
58197;Laerm;43999;51.660;5.616;2023-04-04T06:34:53;65.21;54.34;84.64;;
58197;Laerm;43999;51.660;5.616;2023-04-04T06:37:35;64.94;55.61;75.13;;
58197;Laerm;43999;51.660;5.616;2023-04-04T06:40:14;63.94;53.42;74.99;;
58197;Laerm;43999;51.660;5.616;2023-04-04T06:42:51;63.51;50.52;76.56;;
58197;Laerm;43999;51.660;5.616;2023-04-04T06:45:24;63.73;51.29;78.29;;
58197;Laerm;43999;51.660;5.616;2023-04-04T06:48:07;63.44;53.26;71.80;;
58197;Laerm;43999;51.660;5.616;2023-04-04T06:50:39;64.39;52.57;80.88;;
58197;Laerm;43999;51.660;5.616;2023-04-04T06:53:23;61.92;50.63;73.10;;
58197;Laerm;43999;51.660;5.616;2023-04-04T06:56:14;64.20;55.50;76.62;;
58197;Laerm;43999;51.660;5.616;2023-04-04T06:59:32;63.36;52.11;77.91;;
58197;Laerm;43999;51.660;5.616;2023-04-04T07:02:20;62.59;50.16;75.72;;
58197;Laerm;43999;51.660;5.616;2023-04-04T07:05:15;61.44;50.46;70.74;;
58197;Laerm;43999;51.660;5.616;2023-04-04T07:08:00;63.24;53.49;77.34;;
58197;Laerm;43999;51.660;5.616;2023-04-04T07:10:44;64.99;50.54;78.94;;
58197;Laerm;43999;51.660;5.616;2023-04-04T07:13:19;64.04;50.03;79.99;;
58197;Laerm;43999;51.660;5.616;2023-04-04T07:15:47;62.60;49.84;75.41;;
58197;Laerm;43999;51.660;5.616;2023-04-04T07:18:22;65.21;51.25;81.32;;
58197;Laerm;43999;51.660;5.616;2023-04-04T07:20:55;64.68;54.04;82.41;;
58197;Laerm;43999;51.660;5.616;2023-04-04T07:23:31;63.92;50.62;75.93;;
58197;Laerm;43999;51.660;5.616;2023-04-04T07:25:59;62.99;52.20;75.14;;
58197;Laerm;43999;51.660;5.616;2023-04-04T07:28:36;63.06;51.40;74.83;;
58197;Laerm;43999;51.660;5.616;2023-04-04T07:31:07;64.38;51.26;79.75;;
58197;Laerm;43999;51.660;5.616;2023-04-04T07:33:52;66.04;50.19;82.78;;
58197;Laerm;43999;51.660;5.616;2023-04-04T07:36:36;61.76;48.00;74.35;;
58197;Laerm;43999;51.660;5.616;2023-04-04T07:39:07;64.93;54.29;82.84;;
58197;Laerm;43999;51.660;5.616;2023-04-04T07:41:36;63.53;49.85;73.97;;
58197;Laerm;43999;51.660;5.616;2023-04-04T07:44:18;61.26;49.66;73.21;;
58197;Laerm;43999;51.660;5.616;2023-04-04T07:46:48;61.33;51.82;76.66;;
58197;Laerm;43999;51.660;5.616;2023-04-04T07:49:38;63.32;51.10;76.88;;
58197;Laerm;43999;51.660;5.616;2023-04-04T07:52:29;63.36;51.67;73.89;;
58197;Laerm;43999;51.660;5.616;2023-04-04T07:55:09;62.65;51.46;73.04;;
58197;Laerm;43999;51.660;5.616;2023-04-04T07:58:08;61.86;48.52;77.92;;
58197;Laerm;43999;51.660;5.616;2023-04-04T08:01:11;63.01;50.85;73.27;;
58197;Laerm;43999;51.660;5.616;2023-04-04T08:04:11;63.46;52.11;83.92;;
58197;Laerm;43999;51.660;5.616;2023-04-04T08:06:41;72.83;53.49;92.26;;
58197;Laerm;43999;51.660;5.616;2023-04-04T08:09:17;63.22;51.24;77.28;;
58197;Laerm;43999;51.660;5.616;2023-04-04T08:12:08;65.13;49.43;77.89;;
58197;Laerm;43999;51.660;5.616;2023-04-04T08:14:59;65.76;51.90;85.47;;
58197;Laerm;43999;51.660;5.616;2023-04-04T08:18:20;64.74;51.77;82.07;;
58197;Laerm;43999;51.660;5.616;2023-04-04T08:21:36;62.63;51.91;73.78;;
58197;Laerm;43999;51.660;5.616;2023-04-04T08:25:08;64.90;48.74;90.38;;
58197;Laerm;43999;51.660;5.616;2023-04-04T08:28:16;65.70;54.48;90.87;;
58197;Laerm;43999;51.660;5.616;2023-04-04T08:30:53;65.04;55.57;90.46;;
58197;Laerm;43999;51.660;5.616;2023-04-04T08:34:57;63.84;49.69;74.76;;
58197;Laerm;43999;51.660;5.616;2023-04-04T08:38:14;63.69;52.91;74.44;;
58197;Laerm;43999;51.660;5.616;2023-04-04T08:42:02;63.44;54.57;74.14;;
58197;Laerm;43999;51.660;5.616;2023-04-04T08:48:20;62.84;50.01;74.54;;
58197;Laerm;43999;51.660;5.616;2023-04-04T08:50:58;60.92;50.47;69.64;;
58197;Laerm;43999;51.660;5.616;2023-04-04T08:54:02;60.96;47.74;70.43;;
58197;Laerm;43999;51.660;5.616;2023-04-04T08:57:03;65.06;46.76;77.75;;
58197;Laerm;43999;51.660;5.616;2023-04-04T09:00:00;62.87;51.12;74.61;;
58197;Laerm;43999;51.660;5.616;2023-04-04T09:03:22;63.36;50.78;75.77;;
58197;Laerm;43999;51.660;5.616;2023-04-04T09:06:03;63.79;51.33;75.49;;
58197;Laerm;43999;51.660;5.616;2023-04-04T09:09:18;64.42;51.92;79.99;;
58197;Laerm;43999;51.660;5.616;2023-04-04T09:12:26;77.65;50.28;103.14;;
58197;Laerm;43999;51.660;5.616;2023-04-04T09:15:00;61.15;50.19;68.18;;
58197;Laerm;43999;51.660;5.616;2023-04-04T09:17:36;63.03;49.11;74.41;;
58197;Laerm;43999;51.660;5.616;2023-04-04T09:20:43;64.52;49.83;79.79;;
58197;Laerm;43999;51.660;5.616;2023-04-04T09:23:21;63.00;50.79;79.66;;
58197;Laerm;43999;51.660;5.616;2023-04-04T09:25:54;63.50;50.92;75.84;;
58197;Laerm;43999;51.660;5.616;2023-04-04T09:28:38;65.21;53.49;78.77;;
58197;Laerm;43999;51.660;5.616;2023-04-04T09:31:08;64.64;52.83;76.39;;
58197;Laerm;43999;51.660;5.616;2023-04-04T09:33:48;63.06;51.43;74.80;;
58197;Laerm;43999;51.660;5.616;2023-04-04T09:36:25;62.58;51.89;76.69;;
58197;Laerm;43999;51.660;5.616;2023-04-04T09:38:59;63.47;51.64;79.20;;
58197;Laerm;43999;51.660;5.616;2023-04-04T09:41:28;63.18;53.76;85.23;;
58197;Laerm;43999;51.660;5.616;2023-04-04T09:44:05;70.36;54.64;91.91;;
58197;Laerm;43999;51.660;5.616;2023-04-04T09:46:46;64.19;51.80;79.02;;
58197;Laerm;43999;51.660;5.616;2023-04-04T09:49:20;63.42;51.09;74.69;;
58197;Laerm;43999;51.660;5.616;2023-04-04T09:52:22;62.91;50.62;76.09;;
58197;Laerm;43999;51.660;5.616;2023-04-04T09:55:03;63.85;55.25;79.00;;
58197;Laerm;43999;51.660;5.616;2023-04-04T09:57:51;65.45;54.01;86.54;;
58197;Laerm;43999;51.660;5.616;2023-04-04T10:01:08;66.08;52.28;86.82;;
58197;Laerm;43999;51.660;5.616;2023-04-04T10:03:50;64.05;51.75;87.67;;
58197;Laerm;43999;51.660;5.616;2023-04-04T10:06:38;64.34;50.06;75.22;;
58197;Laerm;43999;51.660;5.616;2023-04-04T10:09:52;63.35;51.11;87.16;;
58197;Laerm;43999;51.660;5.616;2023-04-04T10:12:36;63.22;51.88;78.72;;
58197;Laerm;43999;51.660;5.616;2023-04-04T10:15:11;64.43;51.80;84.97;;
58197;Laerm;43999;51.660;5.616;2023-04-04T10:18:00;61.73;47.32;73.66;;
58197;Laerm;43999;51.660;5.616;2023-04-04T10:20:45;61.42;48.55;71.63;;
58197;Laerm;43999;51.660;5.616;2023-04-04T10:24:06;61.92;49.93;72.99;;
58197;Laerm;43999;51.660;5.616;2023-04-04T10:27:06;61.95;50.47;75.53;;
58197;Laerm;43999;51.660;5.616;2023-04-04T10:37:54;63.57;50.23;75.66;;
58197;Laerm;43999;51.660;5.616;2023-04-04T10:40:38;62.17;50.96;71.72;;
58197;Laerm;43999;51.660;5.616;2023-04-04T10:43:34;64.78;47.18;83.55;;
58197;Laerm;43999;51.660;5.616;2023-04-04T10:46:23;63.55;50.65;78.59;;
58197;Laerm;43999;51.660;5.616;2023-04-04T10:49:37;66.87;51.52;95.35;;
58197;Laerm;43999;51.660;5.616;2023-04-04T10:52:29;64.73;55.25;79.23;;
58197;Laerm;43999;51.660;5.616;2023-04-04T10:58:31;62.47;51.63;80.59;;
58197;Laerm;43999;51.660;5.616;2023-04-04T11:01:19;62.53;53.64;71.72;;
58197;Laerm;43999;51.660;5.616;2023-04-04T11:04:36;65.09;53.13;80.04;;
58197;Laerm;43999;51.660;5.616;2023-04-04T11:07:18;65.84;52.73;81.44;;
58197;Laerm;43999;51.660;5.616;2023-04-04T11:09:54;64.62;52.47;80.16;;
58197;Laerm;43999;51.660;5.616;2023-04-04T11:12:44;62.69;50.71;72.86;;
58197;Laerm;43999;51.660;5.616;2023-04-04T11:15:25;63.57;52.33;85.31;;
58197;Laerm;43999;51.660;5.616;2023-04-04T11:18:04;63.00;49.10;82.62;;
58197;Laerm;43999;51.660;5.616;2023-04-04T11:21:02;67.53;51.43;83.26;;
58197;Laerm;43999;51.660;5.616;2023-04-04T11:26:35;66.32;52.83;78.15;;
58197;Laerm;43999;51.660;5.616;2023-04-04T11:29:05;63.22;53.74;78.02;;
58197;Laerm;43999;51.660;5.616;2023-04-04T11:31:44;65.48;50.91;81.58;;
58197;Laerm;43999;51.660;5.616;2023-04-04T11:34:32;64.25;51.04;80.95;;
58197;Laerm;43999;51.660;5.616;2023-04-04T11:37:26;65.56;51.37;81.13;;
58197;Laerm;43999;51.660;5.616;2023-04-04T11:40:09;64.79;50.89;81.53;;
58197;Laerm;43999;51.660;5.616;2023-04-04T11:42:50;66.17;54.29;79.78;;
58197;Laerm;43999;51.660;5.616;2023-04-04T11:45:35;65.04;52.79;83.70;;
58197;Laerm;43999;51.660;5.616;2023-04-04T11:48:07;64.20;51.16;87.37;;
58197;Laerm;43999;51.660;5.616;2023-04-04T11:50:41;64.63;55.44;75.92;;
58197;Laerm;43999;51.660;5.616;2023-04-04T11:53:12;64.56;53.21;87.38;;
58197;Laerm;43999;51.660;5.616;2023-04-04T11:55:46;62.01;51.19;80.19;;
58197;Laerm;43999;51.660;5.616;2023-04-04T11:58:20;64.37;53.51;79.82;;
58197;Laerm;43999;51.660;5.616;2023-04-04T12:00:50;62.68;51.09;76.49;;
58197;Laerm;43999;51.660;5.616;2023-04-04T12:03:19;62.24;50.25;75.61;;
58197;Laerm;43999;51.660;5.616;2023-04-04T12:05:48;65.16;53.71;78.45;;
58197;Laerm;43999;51.660;5.616;2023-04-04T12:08:19;62.99;49.53;76.40;;
58197;Laerm;43999;51.660;5.616;2023-04-04T12:10:48;64.04;54.12;80.24;;
58197;Laerm;43999;51.660;5.616;2023-04-04T12:13:20;64.12;55.45;76.57;;
58197;Laerm;43999;51.660;5.616;2023-04-04T12:16:01;63.74;53.05;75.64;;
58197;Laerm;43999;51.660;5.616;2023-04-04T12:18:28;65.06;51.90;77.25;;
58197;Laerm;43999;51.660;5.616;2023-04-04T12:20:56;63.43;51.56;79.80;;
58197;Laerm;43999;51.660;5.616;2023-04-04T12:23:37;61.01;51.93;69.59;;
58197;Laerm;43999;51.660;5.616;2023-04-04T12:26:07;65.10;54.93;88.05;;
58197;Laerm;43999;51.660;5.616;2023-04-04T12:28:46;63.91;52.11;76.09;;
58197;Laerm;43999;51.660;5.616;2023-04-04T12:31:17;65.36;51.44;84.82;;
58197;Laerm;43999;51.660;5.616;2023-04-04T12:33:50;64.74;52.47;78.56;;
58197;Laerm;43999;51.660;5.616;2023-04-04T12:36:35;62.74;51.29;74.49;;
58197;Laerm;43999;51.660;5.616;2023-04-04T12:39:09;62.00;51.67;72.60;;
58197;Laerm;43999;51.660;5.616;2023-04-04T12:42:03;67.96;56.85;75.78;;
58197;Laerm;43999;51.660;5.616;2023-04-04T12:44:38;63.18;57.26;77.44;;
58197;Laerm;43999;51.660;5.616;2023-04-04T12:47:13;64.39;53.05;83.87;;
58197;Laerm;43999;51.660;5.616;2023-04-04T12:49:56;63.76;51.76;79.32;;
58197;Laerm;43999;51.660;5.616;2023-04-04T12:52:30;65.06;50.56;87.87;;
58197;Laerm;43999;51.660;5.616;2023-04-04T12:55:09;62.40;51.30;72.02;;
58197;Laerm;43999;51.660;5.616;2023-04-04T12:57:39;61.85;51.71;73.83;;
58197;Laerm;43999;51.660;5.616;2023-04-04T13:00:07;67.15;52.00;85.32;;
58197;Laerm;43999;51.660;5.616;2023-04-04T13:02:39;68.31;53.28;91.96;;
58197;Laerm;43999;51.660;5.616;2023-04-04T13:05:10;63.11;52.67;78.03;;
58197;Laerm;43999;51.660;5.616;2023-04-04T13:07:44;60.68;49.82;77.44;;
58197;Laerm;43999;51.660;5.616;2023-04-04T13:10:14;64.19;52.30;75.11;;
58197;Laerm;43999;51.660;5.616;2023-04-04T13:13:00;63.53;53.88;74.71;;
58197;Laerm;43999;51.660;5.616;2023-04-04T13:16:06;63.79;46.64;76.85;;
58197;Laerm;43999;51.660;5.616;2023-04-04T13:18:41;64.02;51.33;74.23;;
58197;Laerm;43999;51.660;5.616;2023-04-04T13:21:12;64.91;52.12;80.95;;
58197;Laerm;43999;51.660;5.616;2023-04-04T13:23:40;62.47;50.44;74.21;;
58197;Laerm;43999;51.660;5.616;2023-04-04T13:26:10;63.46;50.98;78.52;;
58197;Laerm;43999;51.660;5.616;2023-04-04T13:28:59;64.79;53.69;76.80;;
58197;Laerm;43999;51.660;5.616;2023-04-04T13:31:36;63.92;50.53;76.39;;
58197;Laerm;43999;51.660;5.616;2023-04-04T13:34:06;61.22;50.10;72.40;;
58197;Laerm;43999;51.660;5.616;2023-04-04T13:36:34;63.18;48.46;73.00;;
58197;Laerm;43999;51.660;5.616;2023-04-04T13:39:03;63.67;53.66;80.17;;
58197;Laerm;43999;51.660;5.616;2023-04-04T13:41:33;62.90;52.59;76.31;;
58197;Laerm;43999;51.660;5.616;2023-04-04T13:44:03;62.92;53.72;74.16;;
58197;Laerm;43999;51.660;5.616;2023-04-04T13:46:33;64.23;55.60;79.19;;
58197;Laerm;43999;51.660;5.616;2023-04-04T13:49:00;63.80;52.19;78.61;;
58197;Laerm;43999;51.660;5.616;2023-04-04T13:51:31;62.26;54.21;76.11;;
58197;Laerm;43999;51.660;5.616;2023-04-04T13:54:10;62.83;57.49;72.00;;
58197;Laerm;43999;51.660;5.616;2023-04-04T13:56:41;63.57;54.01;75.06;;
58197;Laerm;43999;51.660;5.616;2023-04-04T13:59:10;62.37;52.39;70.30;;
58197;Laerm;43999;51.660;5.616;2023-04-04T14:01:48;63.20;53.16;77.63;;
58197;Laerm;43999;51.660;5.616;2023-04-04T14:04:18;64.30;54.87;74.15;;
58197;Laerm;43999;51.660;5.616;2023-04-04T14:06:53;64.08;52.67;78.28;;
58197;Laerm;43999;51.660;5.616;2023-04-04T14:09:22;64.43;51.33;81.63;;
58197;Laerm;43999;51.660;5.616;2023-04-04T14:11:51;64.91;54.53;82.34;;
58197;Laerm;43999;51.660;5.616;2023-04-04T14:14:18;68.74;54.48;89.72;;
58197;Laerm;43999;51.660;5.616;2023-04-04T14:16:46;63.29;55.34;76.44;;
58197;Laerm;43999;51.660;5.616;2023-04-04T14:19:13;62.43;51.30;74.66;;
58197;Laerm;43999;51.660;5.616;2023-04-04T14:21:41;63.06;56.64;73.12;;
58197;Laerm;43999;51.660;5.616;2023-04-04T14:24:09;61.93;53.03;74.47;;
58197;Laerm;43999;51.660;5.616;2023-04-04T14:26:39;64.74;49.66;76.23;;
58197;Laerm;43999;51.660;5.616;2023-04-04T14:29:09;67.10;51.03;80.84;;
58197;Laerm;43999;51.660;5.616;2023-04-04T14:31:39;62.82;50.78;78.73;;
58197;Laerm;43999;51.660;5.616;2023-04-04T14:34:08;66.20;52.17;80.59;;
58197;Laerm;43999;51.660;5.616;2023-04-04T14:36:36;64.21;54.04;82.34;;
58197;Laerm;43999;51.660;5.616;2023-04-04T14:39:04;65.00;55.73;90.48;;
58197;Laerm;43999;51.660;5.616;2023-04-04T14:41:31;63.27;55.12;74.60;;
58197;Laerm;43999;51.660;5.616;2023-04-04T14:44:00;63.79;52.19;79.50;;
58197;Laerm;43999;51.660;5.616;2023-04-04T14:46:28;64.21;52.35;75.68;;
58197;Laerm;43999;51.660;5.616;2023-04-04T14:48:56;63.69;52.84;74.90;;
58197;Laerm;43999;51.660;5.616;2023-04-04T14:51:25;64.38;55.77;82.90;;
58197;Laerm;43999;51.660;5.616;2023-04-04T14:53:56;62.83;53.01;72.51;;
58197;Laerm;43999;51.660;5.616;2023-04-04T14:56:25;63.80;49.84;78.29;;
58197;Laerm;43999;51.660;5.616;2023-04-04T14:58:53;63.39;53.90;73.16;;
58197;Laerm;43999;51.660;5.616;2023-04-04T15:01:22;65.38;52.23;80.90;;
58197;Laerm;43999;51.660;5.616;2023-04-04T15:03:49;63.64;54.59;80.01;;
58197;Laerm;43999;51.660;5.616;2023-04-04T15:06:18;66.91;55.70;84.96;;
58197;Laerm;43999;51.660;5.616;2023-04-04T15:08:48;62.37;55.06;74.12;;
58197;Laerm;43999;51.660;5.616;2023-04-04T15:11:17;63.61;52.98;75.19;;
58197;Laerm;43999;51.660;5.616;2023-04-04T15:13:45;63.66;50.94;73.38;;
58197;Laerm;43999;51.660;5.616;2023-04-04T15:16:14;64.44;54.19;81.22;;
58197;Laerm;43999;51.660;5.616;2023-04-04T15:18:44;67.18;54.83;83.27;;